sensor_id;sensor_type;location;lat;lon;timestamp;P1;durP1;ratioP1;P2;durP2;ratioP2
24891;SDS011;12954;50.688;10.908;2022-08-20T00:02:26;8.48;;;2.40;;
24891;SDS011;12954;50.688;10.908;2022-08-20T00:04:54;3.70;;;2.08;;
24891;SDS011;12954;50.688;10.908;2022-08-20T00:07:22;2.47;;;2.20;;
24891;SDS011;12954;50.688;10.908;2022-08-20T00:09:52;3.30;;;2.20;;
24891;SDS011;12954;50.688;10.908;2022-08-20T00:12:21;4.55;;;2.67;;
24891;SDS011;12954;50.688;10.908;2022-08-20T00:14:49;3.45;;;2.33;;
24891;SDS011;12954;50.688;10.908;2022-08-20T00:17:18;5.00;;;2.63;;
24891;SDS011;12954;50.688;10.908;2022-08-20T00:19:46;3.45;;;2.83;;
24891;SDS011;12954;50.688;10.908;2022-08-20T00:22:15;3.08;;;2.78;;
24891;SDS011;12954;50.688;10.908;2022-08-20T00:24:43;3.20;;;2.85;;
24891;SDS011;12954;50.688;10.908;2022-08-20T00:27:14;7.55;;;3.22;;
24891;SDS011;12954;50.688;10.908;2022-08-20T00:29:42;3.60;;;3.00;;
24891;SDS011;12954;50.688;10.908;2022-08-20T00:32:11;2.78;;;2.58;;
24891;SDS011;12954;50.688;10.908;2022-08-20T00:34:39;2.40;;;2.20;;
24891;SDS011;12954;50.688;10.908;2022-08-20T00:37:08;3.45;;;2.10;;
24891;SDS011;12954;50.688;10.908;2022-08-20T00:39:37;3.00;;;1.50;;
24891;SDS011;12954;50.688;10.908;2022-08-20T00:42:05;1.83;;;1.52;;
24891;SDS011;12954;50.688;10.908;2022-08-20T00:44:36;4.55;;;2.45;;
24891;SDS011;12954;50.688;10.908;2022-08-20T00:47:11;3.58;;;1.90;;
24891;SDS011;12954;50.688;10.908;2022-08-20T00:49:40;4.53;;;2.10;;
24891;SDS011;12954;50.688;10.908;2022-08-20T00:52:12;2.33;;;1.70;;
24891;SDS011;12954;50.688;10.908;2022-08-20T00:57:17;2.85;;;1.90;;
24891;SDS011;12954;50.688;10.908;2022-08-20T00:59:53;4.43;;;1.95;;
24891;SDS011;12954;50.688;10.908;2022-08-20T01:02:24;2.20;;;2.00;;
24891;SDS011;12954;50.688;10.908;2022-08-20T01:04:55;3.22;;;2.08;;
24891;SDS011;12954;50.688;10.908;2022-08-20T01:07:25;5.03;;;2.35;;
24891;SDS011;12954;50.688;10.908;2022-08-20T01:10:00;2.30;;;1.88;;
24891;SDS011;12954;50.688;10.908;2022-08-20T01:12:33;2.17;;;1.92;;
24891;SDS011;12954;50.688;10.908;2022-08-20T01:15:04;4.28;;;2.33;;
24891;SDS011;12954;50.688;10.908;2022-08-20T01:17:38;3.33;;;2.13;;
24891;SDS011;12954;50.688;10.908;2022-08-20T01:20:12;4.43;;;2.42;;
24891;SDS011;12954;50.688;10.908;2022-08-20T01:22:45;5.50;;;2.53;;
24891;SDS011;12954;50.688;10.908;2022-08-20T01:25:41;2.80;;;2.50;;
24891;SDS011;12954;50.688;10.908;2022-08-20T01:28:12;4.38;;;2.78;;
24891;SDS011;12954;50.688;10.908;2022-08-20T01:30:43;3.70;;;2.78;;
24891;SDS011;12954;50.688;10.908;2022-08-20T01:33:12;4.30;;;2.58;;
24891;SDS011;12954;50.688;10.908;2022-08-20T01:35:41;3.65;;;2.97;;
24891;SDS011;12954;50.688;10.908;2022-08-20T01:38:11;2.70;;;2.50;;
24891;SDS011;12954;50.688;10.908;2022-08-20T01:40:49;4.93;;;3.00;;
24891;SDS011;12954;50.688;10.908;2022-08-20T01:43:25;3.10;;;2.60;;
24891;SDS011;12954;50.688;10.908;2022-08-20T01:45:57;2.72;;;2.25;;
24891;SDS011;12954;50.688;10.908;2022-08-20T01:48:29;3.17;;;2.58;;
24891;SDS011;12954;50.688;10.908;2022-08-20T01:50:59;5.05;;;2.80;;
24891;SDS011;12954;50.688;10.908;2022-08-20T01:53:33;5.65;;;2.65;;
24891;SDS011;12954;50.688;10.908;2022-08-20T01:56:06;3.50;;;2.53;;
24891;SDS011;12954;50.688;10.908;2022-08-20T01:58:38;4.45;;;2.92;;
24891;SDS011;12954;50.688;10.908;2022-08-20T02:01:17;4.05;;;2.65;;
24891;SDS011;12954;50.688;10.908;2022-08-20T02:03:47;4.60;;;3.20;;
24891;SDS011;12954;50.688;10.908;2022-08-20T02:06:16;3.83;;;3.15;;
24891;SDS011;12954;50.688;10.908;2022-08-20T02:08:45;3.40;;;3.10;;
24891;SDS011;12954;50.688;10.908;2022-08-20T02:11:15;4.00;;;2.95;;
24891;SDS011;12954;50.688;10.908;2022-08-20T02:13:44;4.65;;;3.08;;
24891;SDS011;12954;50.688;10.908;2022-08-20T02:16:15;4.78;;;3.00;;
24891;SDS011;12954;50.688;10.908;2022-08-20T02:18:43;3.63;;;2.45;;
24891;SDS011;12954;50.688;10.908;2022-08-20T02:21:11;3.83;;;2.95;;
24891;SDS011;12954;50.688;10.908;2022-08-20T02:23:40;6.25;;;2.78;;
24891;SDS011;12954;50.688;10.908;2022-08-20T02:26:09;5.22;;;3.22;;
24891;SDS011;12954;50.688;10.908;2022-08-20T02:28:39;5.60;;;3.33;;
24891;SDS011;12954;50.688;10.908;2022-08-20T02:31:07;3.92;;;3.13;;
24891;SDS011;12954;50.688;10.908;2022-08-20T02:33:36;3.45;;;2.83;;
24891;SDS011;12954;50.688;10.908;2022-08-20T02:36:04;3.83;;;2.60;;
24891;SDS011;12954;50.688;10.908;2022-08-20T02:38:34;3.00;;;2.80;;
24891;SDS011;12954;50.688;10.908;2022-08-20T02:41:04;4.15;;;2.90;;
24891;SDS011;12954;50.688;10.908;2022-08-20T02:43:33;3.53;;;2.60;;
24891;SDS011;12954;50.688;10.908;2022-08-20T02:46:05;4.85;;;2.25;;
24891;SDS011;12954;50.688;10.908;2022-08-20T02:48:34;6.97;;;2.42;;
24891;SDS011;12954;50.688;10.908;2022-08-20T02:51:03;3.70;;;3.20;;
24891;SDS011;12954;50.688;10.908;2022-08-20T02:53:34;3.42;;;2.80;;
24891;SDS011;12954;50.688;10.908;2022-08-20T02:56:05;4.97;;;2.80;;
24891;SDS011;12954;50.688;10.908;2022-08-20T02:58:34;2.50;;;2.30;;
24891;SDS011;12954;50.688;10.908;2022-08-20T03:01:06;2.08;;;1.80;;
24891;SDS011;12954;50.688;10.908;2022-08-20T03:03:38;2.33;;;1.77;;
24891;SDS011;12954;50.688;10.908;2022-08-20T03:06:07;2.28;;;1.90;;
24891;SDS011;12954;50.688;10.908;2022-08-20T03:08:37;4.68;;;2.10;;
24891;SDS011;12954;50.688;10.908;2022-08-20T03:11:06;2.78;;;1.75;;
24891;SDS011;12954;50.688;10.908;2022-08-20T03:13:35;5.78;;;1.95;;
24891;SDS011;12954;50.688;10.908;2022-08-20T03:16:05;3.17;;;2.10;;
24891;SDS011;12954;50.688;10.908;2022-08-20T03:18:35;3.05;;;1.90;;
24891;SDS011;12954;50.688;10.908;2022-08-20T03:21:09;1.65;;;1.50;;
24891;SDS011;12954;50.688;10.908;2022-08-20T03:23:40;2.50;;;1.55;;
24891;SDS011;12954;50.688;10.908;2022-08-20T03:26:09;2.17;;;1.70;;
24891;SDS011;12954;50.688;10.908;2022-08-20T03:28:40;2.17;;;1.80;;
24891;SDS011;12954;50.688;10.908;2022-08-20T03:31:10;3.45;;;1.70;;
24891;SDS011;12954;50.688;10.908;2022-08-20T03:33:41;1.80;;;1.40;;
24891;SDS011;12954;50.688;10.908;2022-08-20T03:36:19;1.80;;;1.40;;
24891;SDS011;12954;50.688;10.908;2022-08-20T03:38:54;2.33;;;1.70;;
24891;SDS011;12954;50.688;10.908;2022-08-20T03:41:23;3.80;;;1.70;;
24891;SDS011;12954;50.688;10.908;2022-08-20T03:43:52;4.05;;;1.75;;
24891;SDS011;12954;50.688;10.908;2022-08-20T03:46:23;2.05;;;1.65;;
24891;SDS011;12954;50.688;10.908;2022-08-20T03:48:52;5.00;;;1.90;;
24891;SDS011;12954;50.688;10.908;2022-08-20T03:53:54;3.35;;;1.70;;
24891;SDS011;12954;50.688;10.908;2022-08-20T03:56:23;4.18;;;2.03;;
24891;SDS011;12954;50.688;10.908;2022-08-20T03:58:52;2.33;;;1.73;;
24891;SDS011;12954;50.688;10.908;2022-08-20T04:01:24;3.08;;;1.92;;
24891;SDS011;12954;50.688;10.908;2022-08-20T04:04:11;3.08;;;1.90;;
24891;SDS011;12954;50.688;10.908;2022-08-20T04:06:40;4.05;;;2.72;;
24891;SDS011;12954;50.688;10.908;2022-08-20T04:09:09;3.05;;;2.72;;
24891;SDS011;12954;50.688;10.908;2022-08-20T04:11:38;4.57;;;2.47;;
24891;SDS011;12954;50.688;10.908;2022-08-20T04:14:07;4.70;;;2.50;;
24891;SDS011;12954;50.688;10.908;2022-08-20T04:16:43;3.13;;;2.65;;
24891;SDS011;12954;50.688;10.908;2022-08-20T04:19:14;2.85;;;2.35;;
24891;SDS011;12954;50.688;10.908;2022-08-20T04:21:43;3.10;;;2.80;;
24891;SDS011;12954;50.688;10.908;2022-08-20T04:24:14;3.10;;;2.55;;
24891;SDS011;12954;50.688;10.908;2022-08-20T04:26:57;3.10;;;2.22;;
24891;SDS011;12954;50.688;10.908;2022-08-20T04:29:26;2.28;;;2.08;;
24891;SDS011;12954;50.688;10.908;2022-08-20T04:31:59;3.25;;;2.35;;
24891;SDS011;12954;50.688;10.908;2022-08-20T04:34:31;5.88;;;2.40;;
24891;SDS011;12954;50.688;10.908;2022-08-20T04:37:00;3.33;;;2.40;;
24891;SDS011;12954;50.688;10.908;2022-08-20T04:39:30;3.28;;;2.60;;
24891;SDS011;12954;50.688;10.908;2022-08-20T04:41:58;3.63;;;2.70;;
24891;SDS011;12954;50.688;10.908;2022-08-20T04:44:26;3.42;;;2.50;;
24891;SDS011;12954;50.688;10.908;2022-08-20T04:46:54;3.38;;;2.83;;
24891;SDS011;12954;50.688;10.908;2022-08-20T04:49:24;3.58;;;2.88;;
24891;SDS011;12954;50.688;10.908;2022-08-20T04:51:53;3.10;;;2.80;;
24891;SDS011;12954;50.688;10.908;2022-08-20T04:54:22;2.75;;;2.38;;
24891;SDS011;12954;50.688;10.908;2022-08-20T04:56:50;3.88;;;2.70;;
24891;SDS011;12954;50.688;10.908;2022-08-20T04:59:19;5.15;;;3.15;;
24891;SDS011;12954;50.688;10.908;2022-08-20T05:01:48;3.17;;;2.60;;
24891;SDS011;12954;50.688;10.908;2022-08-20T05:04:17;4.75;;;2.80;;
24891;SDS011;12954;50.688;10.908;2022-08-20T05:06:47;3.20;;;2.90;;
24891;SDS011;12954;50.688;10.908;2022-08-20T05:09:16;3.58;;;2.90;;
24891;SDS011;12954;50.688;10.908;2022-08-20T05:11:45;4.90;;;3.05;;
24891;SDS011;12954;50.688;10.908;2022-08-20T05:14:14;4.43;;;2.63;;
24891;SDS011;12954;50.688;10.908;2022-08-20T05:16:42;3.67;;;3.28;;
24891;SDS011;12954;50.688;10.908;2022-08-20T05:19:11;5.20;;;2.88;;
24891;SDS011;12954;50.688;10.908;2022-08-20T05:21:40;5.78;;;3.50;;
24891;SDS011;12954;50.688;10.908;2022-08-20T05:24:10;5.10;;;3.80;;
24891;SDS011;12954;50.688;10.908;2022-08-20T05:26:38;3.50;;;3.20;;
24891;SDS011;12954;50.688;10.908;2022-08-20T05:29:07;4.18;;;3.60;;
24891;SDS011;12954;50.688;10.908;2022-08-20T05:31:35;3.78;;;3.20;;
24891;SDS011;12954;50.688;10.908;2022-08-20T05:34:06;4.80;;;3.42;;
24891;SDS011;12954;50.688;10.908;2022-08-20T05:36:39;4.05;;;3.55;;
24891;SDS011;12954;50.688;10.908;2022-08-20T05:39:11;3.85;;;3.25;;
24891;SDS011;12954;50.688;10.908;2022-08-20T05:41:41;5.10;;;3.30;;
24891;SDS011;12954;50.688;10.908;2022-08-20T05:44:09;3.90;;;3.50;;
24891;SDS011;12954;50.688;10.908;2022-08-20T05:46:41;3.42;;;3.00;;
24891;SDS011;12954;50.688;10.908;2022-08-20T05:49:11;3.28;;;2.90;;
24891;SDS011;12954;50.688;10.908;2022-08-20T05:51:41;3.20;;;2.90;;
24891;SDS011;12954;50.688;10.908;2022-08-20T05:54:12;3.35;;;2.88;;
24891;SDS011;12954;50.688;10.908;2022-08-20T05:56:42;3.33;;;2.85;;
24891;SDS011;12954;50.688;10.908;2022-08-20T05:59:11;7.28;;;3.13;;
24891;SDS011;12954;50.688;10.908;2022-08-20T06:01:40;4.78;;;3.38;;
24891;SDS011;12954;50.688;10.908;2022-08-20T06:04:09;4.10;;;3.25;;
24891;SDS011;12954;50.688;10.908;2022-08-20T06:06:54;4.72;;;3.17;;
24891;SDS011;12954;50.688;10.908;2022-08-20T06:09:26;4.28;;;3.30;;
24891;SDS011;12954;50.688;10.908;2022-08-20T06:11:58;3.60;;;3.30;;
24891;SDS011;12954;50.688;10.908;2022-08-20T06:14:28;6.05;;;3.20;;
24891;SDS011;12954;50.688;10.908;2022-08-20T06:17:01;4.15;;;3.20;;
24891;SDS011;12954;50.688;10.908;2022-08-20T06:19:33;5.88;;;3.58;;
24891;SDS011;12954;50.688;10.908;2022-08-20T06:22:03;4.40;;;3.70;;
24891;SDS011;12954;50.688;10.908;2022-08-20T06:24:48;4.18;;;3.58;;
24891;SDS011;12954;50.688;10.908;2022-08-20T06:27:17;4.07;;;3.55;;
24891;SDS011;12954;50.688;10.908;2022-08-20T06:29:45;7.13;;;3.78;;
24891;SDS011;12954;50.688;10.908;2022-08-20T06:32:14;5.55;;;4.68;;
24891;SDS011;12954;50.688;10.908;2022-08-20T06:34:57;5.57;;;4.32;;
24891;SDS011;12954;50.688;10.908;2022-08-20T06:37:29;6.40;;;3.83;;
24891;SDS011;12954;50.688;10.908;2022-08-20T06:40:00;4.15;;;3.38;;
24891;SDS011;12954;50.688;10.908;2022-08-20T06:42:32;7.13;;;3.80;;
24891;SDS011;12954;50.688;10.908;2022-08-20T06:45:01;5.38;;;3.78;;
24891;SDS011;12954;50.688;10.908;2022-08-20T06:47:31;4.20;;;3.28;;
24891;SDS011;12954;50.688;10.908;2022-08-20T06:50:01;4.88;;;3.53;;
24891;SDS011;12954;50.688;10.908;2022-08-20T06:52:29;3.58;;;3.28;;
24891;SDS011;12954;50.688;10.908;2022-08-20T06:55:19;4.47;;;3.63;;
24891;SDS011;12954;50.688;10.908;2022-08-20T06:57:55;5.78;;;3.40;;
24891;SDS011;12954;50.688;10.908;2022-08-20T07:00:25;8.85;;;3.60;;
24891;SDS011;12954;50.688;10.908;2022-08-20T07:02:54;4.20;;;3.08;;
24891;SDS011;12954;50.688;10.908;2022-08-20T07:05:23;4.97;;;3.55;;
24891;SDS011;12954;50.688;10.908;2022-08-20T07:07:52;4.35;;;3.83;;
24891;SDS011;12954;50.688;10.908;2022-08-20T07:10:23;5.43;;;3.67;;
24891;SDS011;12954;50.688;10.908;2022-08-20T07:12:52;3.33;;;2.95;;
24891;SDS011;12954;50.688;10.908;2022-08-20T07:15:23;3.72;;;3.35;;
24891;SDS011;12954;50.688;10.908;2022-08-20T07:17:54;5.35;;;3.22;;
24891;SDS011;12954;50.688;10.908;2022-08-20T07:20:27;3.63;;;3.22;;
24891;SDS011;12954;50.688;10.908;2022-08-20T07:22:57;4.50;;;2.75;;
24891;SDS011;12954;50.688;10.908;2022-08-20T07:25:28;5.22;;;3.28;;
24891;SDS011;12954;50.688;10.908;2022-08-20T07:27:59;7.55;;;4.38;;
24891;SDS011;12954;50.688;10.908;2022-08-20T07:30:29;4.97;;;3.97;;
24891;SDS011;12954;50.688;10.908;2022-08-20T07:33:23;4.93;;;4.15;;
24891;SDS011;12954;50.688;10.908;2022-08-20T07:35:54;5.10;;;4.45;;
24891;SDS011;12954;50.688;10.908;2022-08-20T07:38:24;4.25;;;3.72;;
24891;SDS011;12954;50.688;10.908;2022-08-20T07:40:58;4.50;;;3.80;;
24891;SDS011;12954;50.688;10.908;2022-08-20T07:43:30;4.05;;;3.63;;
24891;SDS011;12954;50.688;10.908;2022-08-20T07:46:01;5.97;;;4.90;;
24891;SDS011;12954;50.688;10.908;2022-08-20T07:48:35;4.70;;;3.92;;
24891;SDS011;12954;50.688;10.908;2022-08-20T07:51:06;10.63;;;4.75;;
24891;SDS011;12954;50.688;10.908;2022-08-20T07:53:38;5.03;;;4.50;;
24891;SDS011;12954;50.688;10.908;2022-08-20T07:56:09;6.55;;;4.88;;
24891;SDS011;12954;50.688;10.908;2022-08-20T07:58:42;6.70;;;4.68;;
24891;SDS011;12954;50.688;10.908;2022-08-20T08:01:16;8.55;;;5.88;;
24891;SDS011;12954;50.688;10.908;2022-08-20T08:03:45;8.00;;;6.13;;
24891;SDS011;12954;50.688;10.908;2022-08-20T08:06:16;7.75;;;5.65;;
24891;SDS011;12954;50.688;10.908;2022-08-20T08:08:56;6.13;;;5.53;;
24891;SDS011;12954;50.688;10.908;2022-08-20T08:11:28;8.50;;;6.85;;
24891;SDS011;12954;50.688;10.908;2022-08-20T08:13:58;6.53;;;5.93;;
24891;SDS011;12954;50.688;10.908;2022-08-20T08:16:27;8.15;;;6.88;;
24891;SDS011;12954;50.688;10.908;2022-08-20T08:18:56;9.68;;;6.97;;
24891;SDS011;12954;50.688;10.908;2022-08-20T08:21:27;8.20;;;7.15;;
24891;SDS011;12954;50.688;10.908;2022-08-20T08:23:57;10.60;;;7.63;;
24891;SDS011;12954;50.688;10.908;2022-08-20T08:26:28;11.15;;;7.20;;
24891;SDS011;12954;50.688;10.908;2022-08-20T08:28:56;8.68;;;7.78;;
24891;SDS011;12954;50.688;10.908;2022-08-20T08:31:25;11.07;;;8.55;;
24891;SDS011;12954;50.688;10.908;2022-08-20T08:33:54;9.57;;;8.40;;
24891;SDS011;12954;50.688;10.908;2022-08-20T08:36:23;13.18;;;9.35;;
24891;SDS011;12954;50.688;10.908;2022-08-20T08:38:52;12.27;;;9.88;;
24891;SDS011;12954;50.688;10.908;2022-08-20T08:41:23;11.50;;;9.75;;
24891;SDS011;12954;50.688;10.908;2022-08-20T08:44:01;11.05;;;9.88;;
24891;SDS011;12954;50.688;10.908;2022-08-20T08:46:35;11.57;;;10.45;;
24891;SDS011;12954;50.688;10.908;2022-08-20T08:51:39;12.10;;;10.88;;
24891;SDS011;12954;50.688;10.908;2022-08-20T08:54:12;14.38;;;10.35;;
24891;SDS011;12954;50.688;10.908;2022-08-20T08:56:43;15.45;;;11.70;;
24891;SDS011;12954;50.688;10.908;2022-08-20T08:59:17;13.55;;;12.07;;
24891;SDS011;12954;50.688;10.908;2022-08-20T09:01:47;13.77;;;12.35;;
24891;SDS011;12954;50.688;10.908;2022-08-20T09:04:23;15.07;;;13.48;;
24891;SDS011;12954;50.688;10.908;2022-08-20T09:06:57;15.55;;;13.00;;
24891;SDS011;12954;50.688;10.908;2022-08-20T09:09:29;15.18;;;12.98;;
24891;SDS011;12954;50.688;10.908;2022-08-20T09:12:02;15.48;;;12.40;;
24891;SDS011;12954;50.688;10.908;2022-08-20T09:14:34;14.23;;;12.77;;
24891;SDS011;12954;50.688;10.908;2022-08-20T09:17:03;18.30;;;14.15;;
24891;SDS011;12954;50.688;10.908;2022-08-20T09:19:32;17.38;;;12.63;;
24891;SDS011;12954;50.688;10.908;2022-08-20T09:22:05;15.57;;;13.65;;
24891;SDS011;12954;50.688;10.908;2022-08-20T09:24:34;15.38;;;13.43;;
24891;SDS011;12954;50.688;10.908;2022-08-20T09:27:03;14.50;;;13.00;;
24891;SDS011;12954;50.688;10.908;2022-08-20T09:29:33;17.27;;;12.68;;
24891;SDS011;12954;50.688;10.908;2022-08-20T09:32:03;12.93;;;11.63;;
24891;SDS011;12954;50.688;10.908;2022-08-20T09:34:35;16.60;;;14.32;;
24891;SDS011;12954;50.688;10.908;2022-08-20T09:37:05;21.88;;;16.58;;
24891;SDS011;12954;50.688;10.908;2022-08-20T09:39:34;15.20;;;13.65;;
24891;SDS011;12954;50.688;10.908;2022-08-20T09:42:07;23.23;;;13.82;;
24891;SDS011;12954;50.688;10.908;2022-08-20T09:44:39;15.52;;;12.55;;
24891;SDS011;12954;50.688;10.908;2022-08-20T09:47:08;15.73;;;12.90;;
24891;SDS011;12954;50.688;10.908;2022-08-20T09:49:37;18.50;;;13.13;;
24891;SDS011;12954;50.688;10.908;2022-08-20T09:52:08;14.77;;;12.00;;
24891;SDS011;12954;50.688;10.908;2022-08-20T09:54:39;14.52;;;11.15;;
24891;SDS011;12954;50.688;10.908;2022-08-20T09:57:12;13.80;;;11.70;;
24891;SDS011;12954;50.688;10.908;2022-08-20T09:59:50;13.18;;;11.15;;
24891;SDS011;12954;50.688;10.908;2022-08-20T10:02:23;15.90;;;13.32;;
24891;SDS011;12954;50.688;10.908;2022-08-20T10:04:53;14.05;;;12.20;;
24891;SDS011;12954;50.688;10.908;2022-08-20T10:07:22;14.68;;;12.02;;
24891;SDS011;12954;50.688;10.908;2022-08-20T10:09:51;15.15;;;13.00;;
24891;SDS011;12954;50.688;10.908;2022-08-20T10:12:21;17.05;;;13.40;;
24891;SDS011;12954;50.688;10.908;2022-08-20T10:14:51;12.77;;;11.57;;
24891;SDS011;12954;50.688;10.908;2022-08-20T10:17:21;14.82;;;13.07;;
24891;SDS011;12954;50.688;10.908;2022-08-20T10:19:55;13.75;;;11.80;;
24891;SDS011;12954;50.688;10.908;2022-08-20T10:22:24;15.35;;;13.68;;
24891;SDS011;12954;50.688;10.908;2022-08-20T10:24:53;18.77;;;13.32;;
24891;SDS011;12954;50.688;10.908;2022-08-20T10:27:21;18.85;;;14.55;;
24891;SDS011;12954;50.688;10.908;2022-08-20T10:29:52;20.50;;;15.75;;
24891;SDS011;12954;50.688;10.908;2022-08-20T10:32:20;21.58;;;16.13;;
24891;SDS011;12954;50.688;10.908;2022-08-20T10:34:49;21.77;;;18.13;;
24891;SDS011;12954;50.688;10.908;2022-08-20T10:37:19;21.33;;;18.30;;
24891;SDS011;12954;50.688;10.908;2022-08-20T10:39:49;25.95;;;17.80;;
24891;SDS011;12954;50.688;10.908;2022-08-20T10:42:18;22.08;;;17.02;;
24891;SDS011;12954;50.688;10.908;2022-08-20T10:44:47;19.13;;;16.98;;
24891;SDS011;12954;50.688;10.908;2022-08-20T10:47:19;21.55;;;16.80;;
24891;SDS011;12954;50.688;10.908;2022-08-20T10:49:51;19.25;;;17.25;;
24891;SDS011;12954;50.688;10.908;2022-08-20T10:52:22;18.40;;;16.50;;
24891;SDS011;12954;50.688;10.908;2022-08-20T10:54:58;19.58;;;16.95;;
24891;SDS011;12954;50.688;10.908;2022-08-20T10:57:36;20.33;;;16.77;;
24891;SDS011;12954;50.688;10.908;2022-08-20T11:00:13;19.40;;;17.50;;
24891;SDS011;12954;50.688;10.908;2022-08-20T11:06:38;18.30;;;16.40;;
24891;SDS011;12954;50.688;10.908;2022-08-20T11:09:14;18.05;;;16.08;;
24891;SDS011;12954;50.688;10.908;2022-08-20T11:11:49;18.98;;;16.77;;
24891;SDS011;12954;50.688;10.908;2022-08-20T11:14:25;18.98;;;15.90;;
24891;SDS011;12954;50.688;10.908;2022-08-20T11:16:55;19.75;;;17.65;;
24891;SDS011;12954;50.688;10.908;2022-08-20T11:23:23;20.55;;;18.30;;
24891;SDS011;12954;50.688;10.908;2022-08-20T11:25:56;18.95;;;16.95;;
24891;SDS011;12954;50.688;10.908;2022-08-20T11:28:27;19.98;;;17.98;;
24891;SDS011;12954;50.688;10.908;2022-08-20T11:34:41;19.65;;;17.60;;
24891;SDS011;12954;50.688;10.908;2022-08-20T11:37:10;20.42;;;18.42;;
24891;SDS011;12954;50.688;10.908;2022-08-20T11:39:42;19.15;;;17.25;;
24891;SDS011;12954;50.688;10.908;2022-08-20T11:42:12;20.13;;;18.05;;
24891;SDS011;12954;50.688;10.908;2022-08-20T11:44:41;18.45;;;16.50;;
24891;SDS011;12954;50.688;10.908;2022-08-20T11:47:20;22.15;;;17.55;;
24891;SDS011;12954;50.688;10.908;2022-08-20T11:50:03;19.65;;;17.65;;
24891;SDS011;12954;50.688;10.908;2022-08-20T11:52:34;19.90;;;17.80;;
24891;SDS011;12954;50.688;10.908;2022-08-20T11:57:54;18.35;;;16.45;;
24891;SDS011;12954;50.688;10.908;2022-08-20T12:02:59;21.17;;;17.10;;
24891;SDS011;12954;50.688;10.908;2022-08-20T12:05:28;18.77;;;16.35;;
24891;SDS011;12954;50.688;10.908;2022-08-20T12:07:56;19.67;;;17.67;;
24891;SDS011;12954;50.688;10.908;2022-08-20T12:10:28;19.85;;;17.75;;
24891;SDS011;12954;50.688;10.908;2022-08-20T12:12:59;21.48;;;19.27;;
24891;SDS011;12954;50.688;10.908;2022-08-20T12:15:30;20.77;;;17.40;;
24891;SDS011;12954;50.688;10.908;2022-08-20T12:18:04;20.08;;;18.00;;
24891;SDS011;12954;50.688;10.908;2022-08-20T12:20:39;19.73;;;17.63;;
24891;SDS011;12954;50.688;10.908;2022-08-20T12:23:08;19.45;;;17.35;;
24891;SDS011;12954;50.688;10.908;2022-08-20T12:25:37;20.00;;;17.88;;
24891;SDS011;12954;50.688;10.908;2022-08-20T12:28:11;19.23;;;17.17;;
24891;SDS011;12954;50.688;10.908;2022-08-20T12:30:48;20.25;;;18.13;;
24891;SDS011;12954;50.688;10.908;2022-08-20T12:33:17;16.17;;;14.30;;
24891;SDS011;12954;50.688;10.908;2022-08-20T12:35:46;18.23;;;16.42;;
24891;SDS011;12954;50.688;10.908;2022-08-20T12:38:14;17.23;;;14.95;;
24891;SDS011;12954;50.688;10.908;2022-08-20T12:40:43;19.15;;;15.43;;
24891;SDS011;12954;50.688;10.908;2022-08-20T12:43:14;17.33;;;15.52;;
24891;SDS011;12954;50.688;10.908;2022-08-20T12:45:47;19.38;;;15.57;;
24891;SDS011;12954;50.688;10.908;2022-08-20T12:48:15;19.98;;;17.60;;
24891;SDS011;12954;50.688;10.908;2022-08-20T12:50:46;17.80;;;15.98;;
24891;SDS011;12954;50.688;10.908;2022-08-20T12:53:15;17.55;;;15.80;;
24891;SDS011;12954;50.688;10.908;2022-08-20T12:55:44;16.75;;;14.45;;
24891;SDS011;12954;50.688;10.908;2022-08-20T12:58:14;17.25;;;15.45;;
24891;SDS011;12954;50.688;10.908;2022-08-20T13:00:47;17.42;;;15.63;;
24891;SDS011;12954;50.688;10.908;2022-08-20T13:03:17;17.73;;;15.82;;
24891;SDS011;12954;50.688;10.908;2022-08-20T13:05:47;18.90;;;15.23;;
24891;SDS011;12954;50.688;10.908;2022-08-20T13:08:16;17.67;;;14.55;;
24891;SDS011;12954;50.688;10.908;2022-08-20T13:10:45;18.23;;;15.98;;
24891;SDS011;12954;50.688;10.908;2022-08-20T13:13:17;17.20;;;15.50;;
24891;SDS011;12954;50.688;10.908;2022-08-20T13:15:47;19.05;;;17.02;;
24891;SDS011;12954;50.688;10.908;2022-08-20T13:18:16;17.38;;;15.68;;
24891;SDS011;12954;50.688;10.908;2022-08-20T13:20:46;17.70;;;15.88;;
24891;SDS011;12954;50.688;10.908;2022-08-20T13:23:55;17.45;;;15.65;;
24891;SDS011;12954;50.688;10.908;2022-08-20T13:26:24;18.13;;;16.33;;
24891;SDS011;12954;50.688;10.908;2022-08-20T13:28:54;18.40;;;16.42;;
24891;SDS011;12954;50.688;10.908;2022-08-20T13:31:23;18.92;;;16.90;;
24891;SDS011;12954;50.688;10.908;2022-08-20T13:33:52;20.35;;;15.57;;
24891;SDS011;12954;50.688;10.908;2022-08-20T13:36:20;17.52;;;15.80;;
24891;SDS011;12954;50.688;10.908;2022-08-20T13:38:49;17.30;;;15.40;;
24891;SDS011;12954;50.688;10.908;2022-08-20T13:41:18;17.90;;;16.10;;
24891;SDS011;12954;50.688;10.908;2022-08-20T13:43:47;17.05;;;15.38;;
24891;SDS011;12954;50.688;10.908;2022-08-20T13:46:17;17.77;;;15.23;;
24891;SDS011;12954;50.688;10.908;2022-08-20T13:48:46;16.90;;;14.43;;
24891;SDS011;12954;50.688;10.908;2022-08-20T13:51:15;17.83;;;15.30;;
24891;SDS011;12954;50.688;10.908;2022-08-20T13:53:44;20.20;;;15.75;;
24891;SDS011;12954;50.688;10.908;2022-08-20T13:56:39;17.38;;;15.57;;
24891;SDS011;12954;50.688;10.908;2022-08-20T13:59:37;15.80;;;13.77;;
24891;SDS011;12954;50.688;10.908;2022-08-20T14:02:10;16.17;;;14.23;;
24891;SDS011;12954;50.688;10.908;2022-08-20T14:04:41;15.88;;;12.52;;
24891;SDS011;12954;50.688;10.908;2022-08-20T14:07:10;16.98;;;13.25;;
24891;SDS011;12954;50.688;10.908;2022-08-20T14:09:41;14.82;;;13.32;;
24891;SDS011;12954;50.688;10.908;2022-08-20T14:12:12;17.40;;;13.52;;
24891;SDS011;12954;50.688;10.908;2022-08-20T14:14:42;14.65;;;12.82;;
24891;SDS011;12954;50.688;10.908;2022-08-20T14:20:05;16.95;;;13.75;;
24891;SDS011;12954;50.688;10.908;2022-08-20T14:22:37;16.27;;;13.50;;
24891;SDS011;12954;50.688;10.908;2022-08-20T14:25:08;14.95;;;12.50;;
24891;SDS011;12954;50.688;10.908;2022-08-20T14:27:40;13.65;;;11.88;;
24891;SDS011;12954;50.688;10.908;2022-08-20T14:30:12;14.93;;;13.27;;
24891;SDS011;12954;50.688;10.908;2022-08-20T14:32:46;13.65;;;12.25;;
24891;SDS011;12954;50.688;10.908;2022-08-20T14:35:15;15.13;;;13.63;;
24891;SDS011;12954;50.688;10.908;2022-08-20T14:37:45;20.38;;;14.05;;
24891;SDS011;12954;50.688;10.908;2022-08-20T14:40:16;15.35;;;13.70;;
24891;SDS011;12954;50.688;10.908;2022-08-20T14:42:46;14.90;;;13.32;;
24891;SDS011;12954;50.688;10.908;2022-08-20T14:45:17;15.43;;;13.57;;
24891;SDS011;12954;50.688;10.908;2022-08-20T14:47:50;14.68;;;12.95;;
24891;SDS011;12954;50.688;10.908;2022-08-20T14:50:22;15.40;;;12.88;;
24891;SDS011;12954;50.688;10.908;2022-08-20T14:52:53;15.48;;;13.57;;
24891;SDS011;12954;50.688;10.908;2022-08-20T14:55:28;14.45;;;13.02;;
24891;SDS011;12954;50.688;10.908;2022-08-20T14:57:59;15.07;;;12.80;;
24891;SDS011;12954;50.688;10.908;2022-08-20T15:00:29;15.95;;;11.88;;
24891;SDS011;12954;50.688;10.908;2022-08-20T15:03:01;16.30;;;14.60;;
24891;SDS011;12954;50.688;10.908;2022-08-20T15:05:30;14.52;;;13.02;;
24891;SDS011;12954;50.688;10.908;2022-08-20T15:07:58;14.88;;;12.23;;
24891;SDS011;12954;50.688;10.908;2022-08-20T15:10:29;15.48;;;11.73;;
24891;SDS011;12954;50.688;10.908;2022-08-20T15:12:59;13.20;;;11.35;;
24891;SDS011;12954;50.688;10.908;2022-08-20T15:15:28;12.57;;;11.07;;